Time;durP1;ratioP1;P1;durP2;ratioP2;P2;SDS_P1;SDS_P2;PMS_P1;PMS_P2;Temp;Humidity;BMP_temperature;BMP_pressure;BME280_temperature;BME280_humidity;BME280_pressure;Samples;Min_cycle;Max_cycle;Signal;HPM_P1;HPM_P2
2022/02/06 00:04:14;;;;;;;6.30;1.77;;;;;;;3.56;69.72;99936.06;10412173;28;20054;-76
2022/02/06 00:09:16;;;;;;;3.47;1.80;;;;;;;3.53;69.33;99911.78;10428623;28;20092;-76
2022/02/06 00:14:18;;;;;;;3.25;1.20;;;;;;;3.67;68.15;99898.72;10426917;28;20053;-75
2022/02/06 00:19:19;;;;;;;2.85;1.58;;;;;;;3.74;66.77;99896.97;10403828;28;20046;-77
2022/02/06 00:24:32;;;;;;;3.50;0.98;;;;;;;3.98;64.73;99875.09;10386685;28;20491;-75
2022/02/06 00:29:45;;;;;;;6.32;1.58;;;;;;;4.18;63.02;99872.38;10421888;28;20064;-76
2022/02/06 00:40:07;;;;;;;6.25;1.65;;;;;;;4.40;61.31;99858.28;10420512;28;20037;-76
2022/02/06 00:45:09;;;;;;;4.93;1.00;;;;;;;4.42;61.01;99846.09;10403891;28;20111;-77
2022/02/06 00:50:11;;;;;;;4.50;1.45;;;;;;;4.50;60.93;99846.91;10420120;28;20041;-76
2022/02/06 00:55:13;;;;;;;3.95;1.27;;;;;;;4.52;60.40;99839.09;10420050;28;20444;-76
2022/02/06 01:00:15;;;;;;;3.17;1.00;;;;;;;4.53;60.81;99846.88;10420069;28;20502;-76
2022/02/06 01:05:16;;;;;;;2.65;1.00;;;;;;;4.67;60.20;99825.91;10421700;28;20060;-75
2022/02/06 01:10:18;;;;;;;3.47;1.08;;;;;;;4.62;60.49;99826.84;10421632;28;20042;-75
2022/02/06 01:15:25;;;;;;;2.80;1.02;;;;;;;4.67;61.27;99814.63;10404153;28;20064;-75
2022/02/06 01:20:38;;;;;;;4.15;1.00;;;;;;;4.68;61.93;99814.59;10406983;28;20477;-75
2022/02/06 01:25:55;;;;;;;1.75;0.90;;;;;;;4.50;63.88;99799.19;10403776;28;20124;-75
2022/02/06 01:31:22;;;;;;;3.90;1.23;;;;;;;4.43;66.02;99792.34;10419481;28;20561;-75
2022/02/06 01:41:23;;;;;;;4.68;1.67;;;;;;;3.98;71.26;99782.34;10401549;28;20472;-76
2022/02/06 01:46:40;;;;;;;3.72;1.20;;;;;;;3.92;72.81;99782.41;10419817;28;20051;-76
2022/02/06 01:57:25;;;;;;;4.40;1.27;;;;;;;3.72;75.19;99772.19;10420681;28;20048;-76
2022/02/06 02:13:01;;;;;;;6.18;1.35;;;;;;;3.34;81.23;99728.31;10422053;28;20041;-77
2022/02/06 02:23:49;;;;;;;5.65;1.60;;;;;;;3.28;82.17;99704.97;10420740;28;20073;-77
2022/02/06 02:29:21;;;;;;;7.90;1.50;;;;;;;3.32;83.08;99703.19;10417943;28;20064;-77
2022/02/06 02:50:21;;;;;;;4.63;1.95;;;;;;;3.27;84.56;99659.06;10423911;28;20467;-78
2022/02/06 03:00:38;;;;;;;;;;;;;;;3.27;84.47;99649.53;10427140;28;20049;-76
2022/02/06 03:05:41;;;;;;;4.50;1.42;;;;;;;3.40;84.66;99637.31;10425555;28;19928;-77
2022/02/06 03:10:44;;;;;;;4.78;1.45;;;;;;;3.29;85.68;99621.84;10390135;28;20453;-77
2022/02/06 03:20:59;;;;;;;6.45;1.88;;;;;;;3.49;83.68;99600.84;10424441;28;20065;-77
2022/02/06 03:26:00;;;;;;;3.72;1.10;;;;;;;3.61;83.10;99601.59;10406890;28;20103;-77
2022/02/06 03:31:02;;;;;;;5.40;1.13;;;;;;;3.83;81.92;99582.28;10518497;22;20093;-68
2022/02/06 03:36:04;;;;;;;3.75;1.40;;;;;;;3.79;81.42;99565.88;10545620;28;20052;-70
2022/02/06 03:41:09;;;;;;;6.65;1.30;;;;;;;3.87;79.68;99551.94;10545754;28;20554;-68
2022/02/06 03:46:16;;;;;;;4.47;1.38;;;;;;;4.04;78.35;99534.38;10545581;28;20047;-68
2022/02/06 03:51:20;;;;;;;4.25;1.23;;;;;;;4.11;77.43;99517.78;10546068;28;20039;-69
2022/02/06 03:56:23;;;;;;;4.35;1.17;;;;;;;4.15;75.83;99497.78;10526620;28;20048;-69
2022/02/06 04:01:26;;;;;;;7.25;1.63;;;;;;;4.30;74.92;99500.19;10544535;28;20036;-69
2022/02/06 04:06:28;;;;;;;3.25;1.10;;;;;;;4.38;73.67;99492.25;10544265;28;20044;-69
2022/02/06 04:11:45;;;;;;;5.20;1.20;;;;;;;4.48;74.15;99478.22;10544568;28;20047;-68
2022/02/06 04:16:53;;;;;;;3.95;0.98;;;;;;;4.60;73.40;99479.75;10544876;28;20105;-69
2022/02/06 04:21:57;;;;;;;6.00;1.13;;;;;;;4.66;74.06;99466.66;10544199;28;20040;-70
2022/02/06 04:26:59;;;;;;;6.80;1.73;;;;;;;4.49;75.43;99451.31;10543898;28;20047;-69
2022/02/06 04:32:03;;;;;;;3.95;1.05;;;;;;;4.48;76.25;99440.03;10543209;28;20040;-70
2022/02/06 04:37:18;;;;;;;5.25;1.30;;;;;;;4.34;76.63;99439.41;10543507;28;20101;-69
2022/02/06 04:42:38;;;;;;;3.33;1.00;;;;;;;4.38;77.24;99428.03;10524769;28;20075;-70
2022/02/06 05:24:55;;;;;;;4.00;0.90;;;;;;;4.22;80.52;99383.22;10541463;28;20040;-69
2022/02/06 05:30:05;;;;;;;2.97;0.80;;;;;;;4.28;80.72;99380.50;10541362;28;20044;-68
2022/02/06 05:35:08;;;;;;;5.47;1.83;;;;;;;4.25;82.14;99369.28;10541520;28;20044;-69
2022/02/06 05:40:10;;;;;;;5.50;0.93;;;;;;;4.32;81.61;99368.31;10522500;28;20058;-69
2022/02/06 05:45:12;;;;;;;3.10;0.90;;;;;;;4.46;79.05;99361.13;10522767;28;20036;-68
2022/02/06 05:50:16;;;;;;;2.20;0.90;;;;;;;4.47;79.16;99343.75;10540491;28;20031;-68
2022/02/06 05:55:18;;;;;;;2.75;0.88;;;;;;;4.70;75.88;99328.59;10540485;28;20048;-68
2022/02/06 06:00:20;;;;;;;1.73;0.80;;;;;;;4.68;77.03;99314.72;10540464;28;20067;-69
2022/02/06 06:05:22;;;;;;;2.17;0.50;;;;;;;4.91;73.73;99324.69;10540553;28;20135;-69
2022/02/06 06:10:23;;;;;;;4.47;1.60;;;;;;;5.12;72.58;99305.16;10540199;28;20489;-69
2022/02/06 06:15:25;;;;;;;1.90;0.68;;;;;;;5.19;72.16;99319.78;10540125;28;20455;-69
2022/02/06 06:20:28;;;;;;;2.92;0.70;;;;;;;5.28;71.66;99290.91;10540304;28;20043;-69
2022/02/06 06:25:39;;;;;;;1.95;0.60;;;;;;;5.34;70.82;99279.50;10545808;28;20052;-69
2022/02/06 06:30:40;;;;;;;0.68;0.40;;;;;;;5.41;70.31;99265.44;10547898;28;20097;-69
2022/02/06 06:35:42;;;;;;;1.33;0.47;;;;;;;5.36;71.73;99279.44;10531142;28;20044;-69
2022/02/06 06:40:43;;;;;;;0.95;0.38;;;;;;;5.31;72.70;99282.16;10547750;28;20044;-69
2022/02/06 06:45:45;;;;;;;1.33;0.50;;;;;;;5.18;73.55;99272.91;10529457;28;20056;-69
2022/02/06 06:50:47;;;;;;;2.42;0.63;;;;;;;5.18;73.71;99242.53;10548164;28;20044;-69
2022/02/06 06:55:56;;;;;;;0.57;0.40;;;;;;;5.17;73.94;99256.41;10547762;28;20382;-69
2022/02/06 07:01:20;;;;;;;0.88;0.38;;;;;;;5.38;73.18;99246.41;10547617;28;20040;-68
2022/02/06 07:06:19;;;;;;;1.50;0.65;;;;;;;5.43;72.76;99239.34;10546452;28;20051;-69
2022/02/06 07:11:20;;;;;;;2.42;0.50;;;;;;;5.39;73.66;99240.28;10528698;28;20066;-69
2022/02/06 07:16:22;;;;;;;1.17;0.77;;;;;;;5.20;75.70;99240.72;10546170;28;20044;-69
2022/02/06 07:21:24;;;;;;;0.52;0.40;;;;;;;5.16;75.93;99218.22;10528126;28;20066;-69
2022/02/06 07:26:26;;;;;;;1.15;0.55;;;;;;;5.27;75.39;99197.16;10529577;28;20482;-69
2022/02/06 07:31:28;;;;;;;0.82;0.50;;;;;;;5.26;75.17;99219.72;10547236;28;20419;-69
2022/02/06 07:36:30;;;;;;;1.80;0.70;;;;;;;5.15;77.10;99205.25;10546373;28;20451;-69
2022/02/06 07:41:31;;;;;;;1.60;0.60;;;;;;;5.19;76.50;99201.69;10546746;28;20503;-69
2022/02/06 07:46:42;;;;;;;1.17;0.50;;;;;;;5.36;75.68;99214.28;10544984;28;20052;-68
2022/02/06 07:51:44;;;;;;;2.88;0.55;;;;;;;5.28;77.05;99180.63;10545999;28;20044;-70
2022/02/06 07:56:46;;;;;;;0.95;0.60;;;;;;;5.33;76.86;99183.97;10545471;28;20044;-69
2022/02/06 08:01:49;;;;;;;1.85;0.63;;;;;;;5.42;76.53;99175.06;10546121;28;20070;-68
2022/02/06 08:06:50;;;;;;;1.85;0.60;;;;;;;5.41;76.90;99169.00;10544772;28;20079;-69
2022/02/06 08:11:52;;;;;;;2.33;0.90;;;;;;;5.42;77.57;99147.25;10544507;28;20104;-68
2022/02/06 08:16:53;;;;;;;0.85;0.50;;;;;;;5.47;77.98;99149.75;10525641;28;20052;-69
2022/02/06 08:21:56;;;;;;;3.42;1.13;;;;;;;5.54;77.59;99135.69;10543846;28;20040;-68
2022/02/06 08:26:58;;;;;;;2.28;0.82;;;;;;;5.61;76.99;99141.56;10525569;28;20047;-70
2022/02/06 08:32:00;;;;;;;1.45;0.60;;;;;;;5.68;76.35;99110.09;10525959;28;20114;-68
2022/02/06 08:37:03;;;;;;;2.03;0.60;;;;;;;5.80;75.41;99117.59;10544055;28;20409;-68
2022/02/06 08:42:08;;;;;;;1.23;0.52;;;;;;;6.02;72.65;99104.84;10525253;28;20101;-69
2022/02/06 08:47:12;;;;;;;3.05;0.90;;;;;;;6.05;73.49;99090.84;10526554;28;20497;-68
2022/02/06 08:52:14;;;;;;;1.38;0.50;;;;;;;6.18;72.19;99076.53;10525776;28;20066;-69
2022/02/06 08:57:21;;;;;;;2.85;0.60;;;;;;;6.29;71.03;99087.53;10543594;28;20102;-69
2022/02/06 09:02:24;;;;;;;3.10;0.60;;;;;;;6.25;70.84;99082.47;10524306;28;20532;-69
2022/02/06 09:07:25;;;;;;;2.17;0.68;;;;;;;6.28;70.22;99057.09;10543187;28;20439;-69
2022/02/06 09:12:28;;;;;;;1.83;0.60;;;;;;;6.18;70.64;99062.66;10543349;28;20044;-70
2022/02/06 09:17:30;;;;;;;2.60;0.80;;;;;;;6.19;70.79;99040.88;10525669;28;20515;-69
2022/02/06 09:22:31;;;;;;;1.98;0.65;;;;;;;6.25;70.21;99036.34;10542925;28;20075;-69
2022/02/06 09:27:35;;;;;;;1.95;0.60;;;;;;;6.31;70.25;99030.91;10543867;28;20044;-69
2022/02/06 09:37:41;;;;;;;1.45;0.70;;;;;;;6.50;69.78;99031.19;10542409;28;20044;-70
2022/02/06 09:42:47;;;;;;;1.55;0.60;;;;;;;6.75;67.32;99009.53;10542793;28;20040;-68
2022/02/06 09:47:49;;;;;;;1.67;0.60;;;;;;;6.91;65.70;99002.06;10524996;28;20070;-69
2022/02/06 09:52:53;;;;;;;2.22;0.75;;;;;;;6.94;66.40;99009.78;10524723;28;20537;-69
2022/02/06 09:58:16;;;;;;;1.40;0.65;;;;;;;7.00;65.89;98994.78;10506394;28;20497;-69
2022/02/06 10:03:19;;;;;;;1.40;0.60;;;;;;;7.10;64.99;98995.31;10500539;28;20040;-70
2022/02/06 10:08:38;;;;;;;1.30;0.60;;;;;;;7.10;65.60;98970.94;10501107;28;20131;-70
2022/02/06 10:13:42;;;;;;;1.00;0.40;;;;;;;7.14;64.58;98956.84;10525323;28;20418;-70
2022/02/06 10:18:45;;;;;;;2.25;0.77;;;;;;;7.30;63.40;98971.06;10542185;28;20044;-71
2022/02/06 10:24:00;;;;;;;1.52;0.80;;;;;;;7.36;63.38;98959.56;10524415;28;20051;-70
2022/02/06 10:34:20;;;;;;;;;;;;;;;7.52;63.39;98958.09;10543386;28;20040;-70
2022/02/06 10:39:24;;;;;;;2.17;0.60;;;;;;;7.48;62.13;98941.69;10541769;28;19920;-70
2022/02/06 10:44:30;;;;;;;1.55;0.57;;;;;;;7.53;62.05;98920.59;10541048;28;20047;-71
2022/02/06 10:49:31;;;;;;;0.63;0.47;;;;;;;7.58;61.92;98895.09;10541013;28;20452;-72
2022/02/06 10:54:35;;;;;;;2.95;0.80;;;;;;;7.58;62.45;98903.81;10541208;28;20040;-71
2022/02/06 10:59:43;;;;;;;1.52;0.55;;;;;;;7.64;63.03;98913.19;10540702;28;20547;-72
2022/02/06 11:04:55;;;;;;;1.50;0.70;;;;;;;7.78;60.86;98876.03;10498813;28;20119;-72
2022/02/06 11:10:07;;;;;;;2.40;0.70;;;;;;;7.98;61.62;98886.56;10501353;28;20049;-73
2022/02/06 11:15:28;;;;;;;0.80;0.40;;;;;;;7.90;60.74;98867.69;10506689;28;20094;-72
2022/02/06 11:20:30;;;;;;;1.52;0.40;;;;;;;7.79;59.87;98855.06;10505969;28;20040;-72
2022/02/06 11:25:33;;;;;;;1.27;0.60;;;;;;;7.96;60.48;98862.22;10488184;28;20036;-72
2022/02/06 11:30:34;;;;;;;1.30;0.68;;;;;;;8.19;59.98;98842.09;10505616;28;20033;-73
2022/02/06 11:35:42;;;;;;;1.48;0.50;;;;;;;8.48;58.68;98807.75;10505179;28;20059;-71
2022/02/06 11:47:18;;;;;;;1.17;0.45;;;;;;;8.23;58.72;98781.72;10429634;28;20057;-70
2022/02/06 11:52:20;;;;;;;0.85;0.43;;;;;;;8.22;60.01;98787.88;10505304;28;20513;-72
2022/02/06 11:57:27;;;;;;;1.70;0.50;;;;;;;8.14;59.87;98783.88;10485374;28;20056;-72
2022/02/06 12:02:31;;;;;;;1.27;0.45;;;;;;;7.99;59.75;98761.81;10509182;28;20047;-72
2022/02/06 12:07:51;;;;;;;0.50;0.35;;;;;;;7.95;60.77;98755.84;10545674;28;20044;-72
2022/02/06 12:13:19;;;;;;;1.27;0.40;;;;;;;7.86;60.20;98737.06;10527139;28;20076;-72
2022/02/06 12:18:29;;;;;;;1.08;0.40;;;;;;;7.88;59.85;98711.69;10527324;28;20438;-71
2022/02/06 12:23:37;;;;;;;0.38;0.30;;;;;;;7.78;60.44;98692.91;10544645;28;20048;-72
2022/02/06 12:28:42;;;;;;;0.32;0.32;;;;;;;7.86;59.59;98692.59;10543479;28;20051;-72
2022/02/06 12:33:54;;;;;;;1.42;0.30;;;;;;;7.88;59.68;98675.06;10543977;28;20044;-72
2022/02/06 12:38:59;;;;;;;1.08;0.30;;;;;;;7.81;60.63;98675.31;10543054;28;20048;-72
2022/02/06 12:44:05;;;;;;;0.40;0.20;;;;;;;7.77;60.18;98673.75;10543290;28;20530;-72
2022/02/06 12:49:06;;;;;;;0.30;0.20;;;;;;;7.73;61.18;98653.03;10542835;28;20044;-72
2022/02/06 12:54:14;;;;;;;0.30;0.20;;;;;;;7.64;60.76;98629.88;10543269;28;20071;-71
2022/02/06 12:59:19;;;;;;;0.52;0.20;;;;;;;7.62;60.93;98614.25;10542982;28;20052;-71
2022/02/06 13:04:27;;;;;;;0.50;0.30;;;;;;;7.52;61.42;98603.31;10543021;28;20036;-72
2022/02/06 13:09:35;;;;;;;0.20;0.20;;;;;;;7.51;62.26;98600.78;10525463;28;20044;-72
2022/02/06 13:20:04;;;;;;;0.70;0.15;;;;;;;7.27;63.11;98548.63;10542440;28;20052;-72
2022/02/06 13:40:23;;;;;;;0.20;0.20;;;;;;;7.48;62.24;98493.69;10541496;28;20109;-71
2022/02/06 13:45:27;;;;;;;0.60;0.20;;;;;;;7.50;62.09;98469.19;10522791;28;20101;-72
2022/02/06 13:50:30;;;;;;;0.20;0.20;;;;;;;7.62;60.97;98454.72;10540473;28;20094;-70
2022/02/06 13:55:31;;;;;;;0.28;0.28;;;;;;;7.73;61.22;98436.78;10540834;28;20077;-72
2022/02/06 14:00:33;;;;;;;0.55;0.10;;;;;;;7.82;60.39;98431.13;10541928;28;20036;-72
2022/02/06 14:05:34;;;;;;;0.20;0.20;;;;;;;7.84;60.05;98418.00;10540991;28;20044;-71
2022/02/06 14:10:48;;;;;;;0.25;0.10;;;;;;;7.84;59.48;98418.00;10541174;28;20085;-71
2022/02/06 14:16:02;;;;;;;0.77;0.20;;;;;;;7.88;59.56;98384.66;10540426;28;20529;-71
2022/02/06 14:21:04;;;;;;;0.28;0.20;;;;;;;7.82;60.06;98363.09;10523247;28;20044;-71
2022/02/06 14:26:13;;;;;;;0.20;0.20;;;;;;;7.85;59.68;98351.66;10539955;28;20036;-71
2022/02/06 14:31:30;;;;;;;0.10;0.10;;;;;;;7.89;58.68;98344.53;10534021;28;20041;-71
2022/02/06 14:36:32;;;;;;;0.10;0.10;;;;;;;7.96;58.53;98328.44;10522314;28;20044;-71
2022/02/06 14:41:59;;;;;;;0.57;0.30;;;;;;;7.98;57.83;98325.75;10496649;28;20045;-70
2022/02/06 14:47:01;;;;;;;0.32;0.20;;;;;;;7.95;58.02;98311.06;10504905;28;20052;-71
2022/02/06 14:52:05;;;;;;;0.10;0.10;;;;;;;7.89;57.91;98289.59;10547553;28;20047;-71
2022/02/06 14:57:06;;;;;;;0.88;0.30;;;;;;;7.85;58.95;98270.56;10543274;28;20097;-71
2022/02/06 15:02:08;;;;;;;0.28;0.10;;;;;;;7.76;59.59;98269.25;10540288;28;20051;-71
2022/02/06 15:07:10;;;;;;;0.10;0.10;;;;;;;7.63;60.53;98268.16;10547927;28;20054;-71
2022/02/06 15:12:11;;;;;;;0.00;0.00;;;;;;;7.47;62.49;98247.09;10531664;28;20463;-72
2022/02/06 15:17:18;;;;;;;0.13;0.10;;;;;;;7.41;62.92;98242.19;10547371;28;20048;-73
2022/02/06 15:22:20;;;;;;;0.15;0.15;;;;;;;7.27;64.66;98216.69;10547139;28;20044;-72
2022/02/06 15:27:21;;;;;;;0.10;0.10;;;;;;;7.16;65.22;98231.19;10528463;28;20048;-71
2022/02/06 15:32:25;;;;;;;0.20;0.10;;;;;;;7.06;65.74;98200.25;10547489;28;20044;-71
2022/02/06 15:37:29;;;;;;;0.17;0.17;;;;;;;6.85;68.46;98211.69;10548414;28;20105;-71
2022/02/06 15:42:31;;;;;;;0.10;0.10;;;;;;;6.53;70.86;98189.66;10512707;28;20401;-71
2022/02/06 15:47:32;;;;;;;0.55;0.45;;;;;;;6.34;72.17;98152.25;10506144;28;20048;-70
2022/02/06 15:52:34;;;;;;;0.13;0.10;;;;;;;6.20;74.97;98163.31;10522321;28;20036;-70
2022/02/06 15:57:36;;;;;;;0.30;0.20;;;;;;;6.07;75.14;98129.94;10545674;28;20460;-70
2022/02/06 16:02:38;;;;;;;0.20;0.20;;;;;;;6.01;76.54;98118.91;10545851;28;20511;-70
2022/02/06 16:07:41;;;;;;;0.10;0.10;;;;;;;5.92;77.35;98114.94;10545800;28;20048;-70
2022/02/06 16:12:43;;;;;;;0.20;0.17;;;;;;;5.90;76.96;98108.91;10544818;28;20089;-70
2022/02/06 16:17:44;;;;;;;0.73;0.30;;;;;;;5.85;77.74;98105.66;10544510;28;20477;-71
2022/02/06 16:22:46;;;;;;;0.50;0.20;;;;;;;5.80;78.06;98099.81;10543975;28;20044;-70
2022/02/06 16:27:48;;;;;;;0.30;0.10;;;;;;;5.81;77.96;98080.63;10543831;28;20451;-69
2022/02/06 16:32:50;;;;;;;0.30;0.15;;;;;;;5.87;78.27;98085.56;10543657;28;20070;-69
2022/02/06 16:37:51;;;;;;;0.43;0.40;;;;;;;5.89;77.72;98077.69;10543054;28;20056;-69
2022/02/06 16:42:54;;;;;;;0.30;0.10;;;;;;;5.79;78.90;98053.78;10542134;28;20036;-69
2022/02/06 16:47:55;;;;;;;0.32;0.20;;;;;;;5.93;76.78;98050.59;10543022;28;20078;-71
2022/02/06 16:52:57;;;;;;;0.20;0.10;;;;;;;6.19;73.79;98059.84;10543847;28;20051;-70
2022/02/06 16:57:58;;;;;;;0.30;0.10;;;;;;;6.33;72.64;98047.03;10542778;28;20431;-70
2022/02/06 17:03:00;;;;;;;0.20;0.20;;;;;;;6.40;70.87;98040.59;10542107;28;20123;-70
2022/02/06 17:08:02;;;;;;;0.20;0.20;;;;;;;6.65;70.10;98066.41;10541088;28;20052;-70
2022/02/06 17:13:05;;;;;;;0.10;0.10;;;;;;;6.77;68.24;98049.28;10542576;28;20153;-70
2022/02/06 17:18:06;;;;;;;0.40;0.40;;;;;;;6.64;69.27;98053.41;10541506;28;20040;-70
2022/02/06 17:23:09;;;;;;;0.10;0.10;;;;;;;6.69;68.69;98064.50;10523486;28;20044;-70
2022/02/06 17:28:11;;;;;;;0.47;0.10;;;;;;;6.74;67.90;98067.72;10523245;28;20048;-70
2022/02/06 17:33:13;;;;;;;0.10;0.10;;;;;;;6.76;67.66;98050.22;10541167;28;20123;-70
2022/02/06 17:38:15;;;;;;;0.20;0.20;;;;;;;6.63;69.58;98060.38;10540641;28;20044;-70
2022/02/06 17:43:16;;;;;;;0.38;0.30;;;;;;;6.50;69.90;98070.56;10540722;28;20486;-71
2022/02/06 17:48:19;;;;;;;0.52;0.10;;;;;;;6.45;71.25;98080.38;10539818;28;20036;-71
2022/02/06 17:53:21;;;;;;;0.25;0.20;;;;;;;6.37;72.80;98087.69;10539644;28;20055;-70
2022/02/06 17:58:22;;;;;;;0.10;0.10;;;;;;;6.29;72.57;98074.19;10539504;28;20051;-70
2022/02/06 18:03:24;;;;;;;0.30;0.30;;;;;;;6.20;73.24;98093.72;10539547;28;20039;-70
2022/02/06 18:08:27;;;;;;;0.20;0.20;;;;;;;6.16;74.50;98099.13;10539645;28;20044;-70
2022/02/06 18:13:28;;;;;;;0.10;0.10;;;;;;;6.02;76.69;98136.22;10539508;28;20139;-69
2022/02/06 18:18:31;;;;;;;0.22;0.20;;;;;;;5.87;78.51;98137.72;10542383;28;20044;-70
2022/02/06 18:23:32;;;;;;;0.30;0.20;;;;;;;5.80;79.20;98158.00;10552630;28;20035;-69
2022/02/06 18:28:34;;;;;;;0.32;0.20;;;;;;;5.59;81.12;98169.34;10552706;28;20054;-69
2022/02/06 18:33:36;;;;;;;0.80;0.50;;;;;;;5.52;81.29;98179.16;10553542;28;20047;-71
2022/02/06 18:38:38;;;;;;;0.45;0.20;;;;;;;5.59;79.75;98182.38;10553143;28;20463;-71
2022/02/06 18:43:40;;;;;;;0.20;0.20;;;;;;;5.67;77.45;98182.91;10534724;28;20493;-68
2022/02/06 18:48:43;;;;;;;0.30;0.20;;;;;;;5.63;77.53;98181.34;10553108;28;20048;-69
2022/02/06 18:53:45;;;;;;;0.32;0.30;;;;;;;5.71;76.60;98186.19;10552838;28;20040;-69
2022/02/06 18:58:46;;;;;;;0.90;0.90;;;;;;;5.62;76.20;98189.19;10552933;28;20078;-69
2022/02/06 19:03:48;;;;;;;0.10;0.10;;;;;;;5.65;75.28;98195.13;10552301;28;20044;-71
2022/02/06 19:08:51;;;;;;;0.10;0.10;;;;;;;5.65;75.67;98212.53;10551858;28;20489;-70
2022/02/06 19:13:52;;;;;;;0.10;0.10;;;;;;;5.62;76.04;98220.47;10552671;28;20097;-70
2022/02/06 19:18:54;;;;;;;0.10;0.10;;;;;;;5.73;74.71;98226.13;10535171;28;20036;-70
2022/02/06 19:23:55;;;;;;;0.32;0.20;;;;;;;5.71;75.06;98236.59;10553820;28;20048;-70
2022/02/06 19:29:00;;;;;;;1.00;0.20;;;;;;;5.68;75.45;98225.44;10553554;28;20048;-70
2022/02/06 19:34:10;;;;;;;0.28;0.28;;;;;;;5.72;74.73;98229.63;10547474;28;20511;-71
2022/02/06 19:39:14;;;;;;;0.55;0.25;;;;;;;5.73;75.62;98231.31;10548126;28;20044;-71
2022/02/06 19:44:15;;;;;;;0.50;0.32;;;;;;;5.59;77.14;98225.81;10546540;28;20048;-71
2022/02/06 19:49:18;;;;;;;0.90;0.20;;;;;;;5.60;77.47;98211.88;10546041;28;20044;-71
2022/02/06 19:54:21;;;;;;;0.28;0.28;;;;;;;5.58;77.63;98209.34;10546514;28;20044;-71
2022/02/06 19:59:22;;;;;;;0.20;0.20;;;;;;;5.51;77.67;98194.84;10548326;28;20514;-72
2022/02/06 20:04:24;;;;;;;0.20;0.20;;;;;;;5.53;76.56;98190.41;10546297;28;20085;-71
2022/02/06 20:09:26;;;;;;;0.40;0.20;;;;;;;5.60;76.45;98184.06;10545695;28;20043;-72
2022/02/06 20:14:27;;;;;;;0.20;0.20;;;;;;;5.60;76.61;98186.66;10546124;28;20376;-71
2022/02/06 20:19:29;;;;;;;0.15;0.15;;;;;;;5.62;76.68;98184.81;10546434;28;20097;-72
2022/02/06 20:24:31;;;;;;;0.45;0.38;;;;;;;5.55;76.59;98163.41;10546045;28;20044;-72
2022/02/06 20:29:32;;;;;;;0.13;0.10;;;;;;;5.61;74.38;98159.69;10527345;28;20070;-72
2022/02/06 20:34:34;;;;;;;0.50;0.30;;;;;;;5.51;74.46;98153.16;10545967;28;20059;-71
2022/02/06 20:39:36;;;;;;;0.20;0.20;;;;;;;5.47;74.46;98147.22;10528260;28;20382;-72
2022/02/06 20:44:38;;;;;;;0.25;0.20;;;;;;;5.40;75.08;98152.75;10544027;28;20048;-72
2022/02/06 20:49:42;;;;;;;0.25;0.20;;;;;;;5.49;73.74;98145.41;10546007;28;20071;-72
2022/02/06 20:54:47;;;;;;;0.70;0.20;;;;;;;5.40;75.20;98152.75;10545339;28;20431;-72
2022/02/06 20:59:49;;;;;;;0.20;0.20;;;;;;;5.20;77.31;98170.03;10545174;28;20047;-72
2022/02/06 21:04:51;;;;;;;0.10;0.10;;;;;;;5.04;79.33;98171.53;10544052;28;20060;-71
2022/02/06 21:09:58;;;;;;;0.20;0.10;;;;;;;4.81;81.08;98162.88;10544523;28;20051;-72
2022/02/06 21:15:03;;;;;;;0.10;0.10;;;;;;;4.83;80.66;98161.97;10544423;28;20036;-71
2022/02/06 21:20:05;;;;;;;0.20;0.20;;;;;;;4.89;79.92;98136.53;10543338;28;20044;-70
2022/02/06 21:25:09;;;;;;;1.23;0.40;;;;;;;4.77;80.57;98127.44;10542420;28;20045;-69
2022/02/06 21:30:11;;;;;;;0.63;0.20;;;;;;;4.85;79.66;98114.13;10524060;28;20390;-71
2022/02/06 21:35:16;;;;;;;0.38;0.35;;;;;;;4.95;78.52;98099.84;10525641;28;20098;-71
2022/02/06 21:40:17;;;;;;;1.05;0.20;;;;;;;5.00;77.74;98108.34;10542499;28;20085;-71
2022/02/06 21:45:19;;;;;;;0.30;0.20;;;;;;;5.10;76.47;98123.59;10543550;28;20135;-71
2022/02/06 21:50:21;;;;;;;0.30;0.20;;;;;;;5.12;75.42;98106.13;10542535;28;20082;-72
2022/02/06 21:55:22;;;;;;;0.63;0.20;;;;;;;5.15;74.39;98095.59;10542351;28;20044;-72
2022/02/06 22:00:24;;;;;;;0.20;0.20;;;;;;;5.16;74.54;98116.38;10542507;28;20040;-72
2022/02/06 22:31:42;;;;;;;0.10;0.10;;;;;;;5.31;70.34;98065.38;10491927;28;20060;-70
2022/02/06 22:36:44;;;;;;;0.30;0.10;;;;;;;5.17;71.03;98065.97;10542827;28;20443;-69
2022/02/06 22:41:46;;;;;;;2.50;0.20;;;;;;;5.01;71.91;98080.53;10541945;28;20044;-70
2022/02/06 22:46:48;;;;;;;0.10;0.10;;;;;;;5.16;71.08;98099.91;10541417;28;20050;-70
2022/02/06 22:51:52;;;;;;;0.43;0.15;;;;;;;5.10;71.69;98079.31;10540675;28;20048;-70
2022/02/06 22:56:53;;;;;;;1.13;0.10;;;;;;;5.06;71.79;98089.84;10540025;28;20052;-70
2022/02/06 23:01:55;;;;;;;0.35;0.10;;;;;;;5.17;71.01;98106.78;10522833;28;20040;-71
2022/02/06 23:06:57;;;;;;;0.20;0.20;;;;;;;5.23;71.24;98109.16;10543702;28;20048;-71
2022/02/06 23:11:58;;;;;;;0.57;0.20;;;;;;;5.15;73.00;98103.41;10547705;28;20066;-70
2022/02/06 23:17:00;;;;;;;0.20;0.20;;;;;;;4.94;76.27;98111.16;10547475;28;20047;-71
2022/02/06 23:22:03;;;;;;;0.22;0.20;;;;;;;4.81;78.18;98096.94;10547058;28;20070;-70
2022/02/06 23:27:05;;;;;;;0.20;0.20;;;;;;;4.63;78.49;98100.28;10546871;28;20117;-70
2022/02/06 23:32:07;;;;;;;1.20;0.28;;;;;;;4.53;79.84;98094.56;10546500;28;20072;-69
2022/02/06 23:37:08;;;;;;;1.42;0.30;;;;;;;4.38;81.33;98092.53;10546019;28;20070;-69
2022/02/06 23:42:10;;;;;;;0.30;0.10;;;;;;;4.34;81.87;98088.34;10547264;28;20040;-69
2022/02/06 23:47:15;;;;;;;0.35;0.30;;;;;;;4.13;83.42;98097.81;10546685;28;20105;-68
2022/02/06 23:57:44;;;;;;;0.20;0.20;;;;;;;4.01;85.05;98081.75;10546519;28;20389;-68
